sensor_id;sensor_type;location;lat;lon;timestamp;P1;durP1;ratioP1;P2;durP2;ratioP2
40503;SDS011;42292;49.048;8.374;2022-09-21T00:01:12;8.35;;;5.60;;
40503;SDS011;42292;49.048;8.374;2022-09-21T00:03:38;11.00;;;6.60;;
40503;SDS011;42292;49.048;8.374;2022-09-21T00:06:10;10.32;;;6.20;;
40503;SDS011;42292;49.048;8.374;2022-09-21T00:08:41;8.90;;;5.80;;
40503;SDS011;42292;49.048;8.374;2022-09-21T00:11:10;9.50;;;6.15;;
40503;SDS011;42292;49.048;8.374;2022-09-21T00:13:38;9.27;;;6.25;;
40503;SDS011;42292;49.048;8.374;2022-09-21T00:16:04;8.65;;;6.07;;
40503;SDS011;42292;49.048;8.374;2022-09-21T00:18:33;10.00;;;5.78;;
40503;SDS011;42292;49.048;8.374;2022-09-21T00:21:05;9.35;;;5.70;;
40503;SDS011;42292;49.048;8.374;2022-09-21T00:23:37;8.55;;;6.50;;
40503;SDS011;42292;49.048;8.374;2022-09-21T00:26:16;10.23;;;6.78;;
40503;SDS011;42292;49.048;8.374;2022-09-21T00:28:50;9.07;;;6.20;;
40503;SDS011;42292;49.048;8.374;2022-09-21T00:31:19;10.30;;;6.97;;
40503;SDS011;42292;49.048;8.374;2022-09-21T00:33:50;9.52;;;6.00;;
40503;SDS011;42292;49.048;8.374;2022-09-21T00:36:19;9.02;;;6.32;;
40503;SDS011;42292;49.048;8.374;2022-09-21T00:38:51;9.90;;;6.95;;
40503;SDS011;42292;49.048;8.374;2022-09-21T00:41:19;7.50;;;6.25;;
40503;SDS011;42292;49.048;8.374;2022-09-21T00:43:46;7.95;;;6.32;;
40503;SDS011;42292;49.048;8.374;2022-09-21T00:46:31;10.77;;;7.25;;
40503;SDS011;42292;49.048;8.374;2022-09-21T00:48:56;11.40;;;7.30;;
40503;SDS011;42292;49.048;8.374;2022-09-21T00:51:22;9.02;;;6.50;;
40503;SDS011;42292;49.048;8.374;2022-09-21T00:53:54;11.38;;;6.97;;
40503;SDS011;42292;49.048;8.374;2022-09-21T00:56:28;7.82;;;5.90;;
40503;SDS011;42292;49.048;8.374;2022-09-21T00:58:54;10.63;;;6.13;;
40503;SDS011;42292;49.048;8.374;2022-09-21T01:01:20;9.38;;;6.30;;
40503;SDS011;42292;49.048;8.374;2022-09-21T01:03:51;7.20;;;5.65;;
40503;SDS011;42292;49.048;8.374;2022-09-21T01:06:20;9.07;;;6.05;;
40503;SDS011;42292;49.048;8.374;2022-09-21T01:08:46;8.63;;;6.05;;
40503;SDS011;42292;49.048;8.374;2022-09-21T01:16:39;10.70;;;6.70;;
40503;SDS011;42292;49.048;8.374;2022-09-21T01:21:54;9.15;;;6.65;;
40503;SDS011;42292;49.048;8.374;2022-09-21T01:27:32;8.73;;;6.13;;
40503;SDS011;42292;49.048;8.374;2022-09-21T01:30:11;14.40;;;7.07;;
40503;SDS011;42292;49.048;8.374;2022-09-21T01:35:06;12.70;;;7.40;;
40503;SDS011;42292;49.048;8.374;2022-09-21T01:37:44;13.20;;;7.53;;
40503;SDS011;42292;49.048;8.374;2022-09-21T01:40:20;12.52;;;7.00;;
40503;SDS011;42292;49.048;8.374;2022-09-21T01:42:54;10.45;;;6.85;;
40503;SDS011;42292;49.048;8.374;2022-09-21T01:45:34;8.73;;;6.10;;
40503;SDS011;42292;49.048;8.374;2022-09-21T01:48:04;9.50;;;6.70;;
40503;SDS011;42292;49.048;8.374;2022-09-21T01:50:34;8.25;;;5.78;;
40503;SDS011;42292;49.048;8.374;2022-09-21T01:53:21;7.97;;;6.07;;
40503;SDS011;42292;49.048;8.374;2022-09-21T01:56:10;10.73;;;6.55;;
40503;SDS011;42292;49.048;8.374;2022-09-21T01:59:05;9.10;;;6.28;;
40503;SDS011;42292;49.048;8.374;2022-09-21T02:01:26;10.20;;;6.30;;
40503;SDS011;42292;49.048;8.374;2022-09-21T02:03:56;7.22;;;6.10;;
40503;SDS011;42292;49.048;8.374;2022-09-21T02:06:26;10.57;;;6.22;;
40503;SDS011;42292;49.048;8.374;2022-09-21T02:08:52;9.27;;;7.10;;
40503;SDS011;42292;49.048;8.374;2022-09-21T02:11:20;9.43;;;6.78;;
40503;SDS011;42292;49.048;8.374;2022-09-21T02:13:47;10.52;;;6.95;;
40503;SDS011;42292;49.048;8.374;2022-09-21T02:22:10;9.52;;;7.00;;
40503;SDS011;42292;49.048;8.374;2022-09-21T02:25:07;9.38;;;6.28;;
40503;SDS011;42292;49.048;8.374;2022-09-21T02:30:23;11.00;;;7.35;;
40503;SDS011;42292;49.048;8.374;2022-09-21T02:43:44;13.40;;;7.78;;
40503;SDS011;42292;49.048;8.374;2022-09-21T02:48:53;10.83;;;7.60;;
40503;SDS011;42292;49.048;8.374;2022-09-21T02:51:24;9.80;;;7.28;;
40503;SDS011;42292;49.048;8.374;2022-09-21T02:53:57;12.40;;;7.32;;
40503;SDS011;42292;49.048;8.374;2022-09-21T02:56:26;11.55;;;7.75;;
40503;SDS011;42292;49.048;8.374;2022-09-21T02:58:58;10.27;;;7.40;;
40503;SDS011;42292;49.048;8.374;2022-09-21T03:01:28;9.05;;;7.00;;
40503;SDS011;42292;49.048;8.374;2022-09-21T03:03:56;9.13;;;5.72;;
40503;SDS011;42292;49.048;8.374;2022-09-21T03:06:21;9.93;;;5.80;;
40503;SDS011;42292;49.048;8.374;2022-09-21T03:08:47;9.70;;;6.00;;
40503;SDS011;42292;49.048;8.374;2022-09-21T03:11:16;10.27;;;6.82;;
40503;SDS011;42292;49.048;8.374;2022-09-21T03:13:43;9.57;;;5.70;;
40503;SDS011;42292;49.048;8.374;2022-09-21T03:16:09;8.23;;;5.85;;
40503;SDS011;42292;49.048;8.374;2022-09-21T03:18:35;8.23;;;6.22;;
40503;SDS011;42292;49.048;8.374;2022-09-21T03:21:04;11.60;;;6.80;;
40503;SDS011;42292;49.048;8.374;2022-09-21T03:23:30;7.77;;;5.43;;
40503;SDS011;42292;49.048;8.374;2022-09-21T03:25:56;7.10;;;5.53;;
40503;SDS011;42292;49.048;8.374;2022-09-21T03:28:23;8.63;;;5.93;;
40503;SDS011;42292;49.048;8.374;2022-09-21T03:30:50;9.77;;;6.70;;
40503;SDS011;42292;49.048;8.374;2022-09-21T03:33:16;8.70;;;6.40;;
40503;SDS011;42292;49.048;8.374;2022-09-21T03:35:43;9.63;;;6.50;;
40503;SDS011;42292;49.048;8.374;2022-09-21T03:38:09;9.43;;;6.10;;
40503;SDS011;42292;49.048;8.374;2022-09-21T03:40:39;14.05;;;7.20;;
40503;SDS011;42292;49.048;8.374;2022-09-21T03:43:10;12.43;;;6.88;;
40503;SDS011;42292;49.048;8.374;2022-09-21T03:45:38;11.02;;;7.68;;
40503;SDS011;42292;49.048;8.374;2022-09-21T03:48:07;10.27;;;7.38;;
40503;SDS011;42292;49.048;8.374;2022-09-21T03:50:34;10.68;;;7.45;;
40503;SDS011;42292;49.048;8.374;2022-09-21T03:53:00;10.32;;;7.35;;
40503;SDS011;42292;49.048;8.374;2022-09-21T03:55:26;11.48;;;7.82;;
40503;SDS011;42292;49.048;8.374;2022-09-21T03:57:52;13.90;;;8.43;;
40503;SDS011;42292;49.048;8.374;2022-09-21T04:00:20;13.47;;;7.73;;
40503;SDS011;42292;49.048;8.374;2022-09-21T04:02:46;10.40;;;7.00;;
40503;SDS011;42292;49.048;8.374;2022-09-21T04:05:13;8.90;;;6.38;;
40503;SDS011;42292;49.048;8.374;2022-09-21T04:07:39;10.48;;;6.55;;
40503;SDS011;42292;49.048;8.374;2022-09-21T04:10:06;13.07;;;7.35;;
40503;SDS011;42292;49.048;8.374;2022-09-21T04:12:37;8.82;;;6.40;;
40503;SDS011;42292;49.048;8.374;2022-09-21T04:15:17;11.48;;;6.90;;
40503;SDS011;42292;49.048;8.374;2022-09-21T04:17:44;10.90;;;7.40;;
40503;SDS011;42292;49.048;8.374;2022-09-21T04:20:10;9.73;;;7.20;;
40503;SDS011;42292;49.048;8.374;2022-09-21T04:22:38;9.93;;;7.25;;
40503;SDS011;42292;49.048;8.374;2022-09-21T04:25:06;9.75;;;7.72;;
40503;SDS011;42292;49.048;8.374;2022-09-21T04:27:32;10.10;;;7.73;;
40503;SDS011;42292;49.048;8.374;2022-09-21T04:30:00;9.63;;;7.20;;
40503;SDS011;42292;49.048;8.374;2022-09-21T04:32:25;12.77;;;8.15;;
40503;SDS011;42292;49.048;8.374;2022-09-21T04:34:53;16.25;;;8.10;;
40503;SDS011;42292;49.048;8.374;2022-09-21T04:37:19;10.05;;;7.20;;
40503;SDS011;42292;49.048;8.374;2022-09-21T04:39:45;11.23;;;7.73;;
40503;SDS011;42292;49.048;8.374;2022-09-21T04:42:13;11.52;;;7.40;;
40503;SDS011;42292;49.048;8.374;2022-09-21T04:44:39;10.50;;;7.17;;
40503;SDS011;42292;49.048;8.374;2022-09-21T04:47:06;10.68;;;7.40;;
40503;SDS011;42292;49.048;8.374;2022-09-21T04:49:32;11.63;;;7.60;;
40503;SDS011;42292;49.048;8.374;2022-09-21T04:52:00;9.23;;;7.25;;
40503;SDS011;42292;49.048;8.374;2022-09-21T04:54:27;12.90;;;10.03;;
40503;SDS011;42292;49.048;8.374;2022-09-21T04:56:52;11.88;;;7.50;;
40503;SDS011;42292;49.048;8.374;2022-09-21T04:59:18;12.40;;;7.90;;
40503;SDS011;42292;49.048;8.374;2022-09-21T05:01:43;14.60;;;8.20;;
40503;SDS011;42292;49.048;8.374;2022-09-21T05:04:09;12.82;;;8.45;;
40503;SDS011;42292;49.048;8.374;2022-09-21T05:06:37;9.88;;;8.20;;
40503;SDS011;42292;49.048;8.374;2022-09-21T05:09:02;10.93;;;8.23;;
40503;SDS011;42292;49.048;8.374;2022-09-21T05:11:46;15.25;;;9.27;;
40503;SDS011;42292;49.048;8.374;2022-09-21T05:14:12;14.38;;;9.77;;
40503;SDS011;42292;49.048;8.374;2022-09-21T05:16:42;14.50;;;9.35;;
40503;SDS011;42292;49.048;8.374;2022-09-21T05:19:08;12.25;;;9.15;;
40503;SDS011;42292;49.048;8.374;2022-09-21T05:21:34;18.70;;;9.32;;
40503;SDS011;42292;49.048;8.374;2022-09-21T05:24:02;12.27;;;9.30;;
40503;SDS011;42292;49.048;8.374;2022-09-21T05:26:29;9.98;;;7.97;;
40503;SDS011;42292;49.048;8.374;2022-09-21T05:28:55;10.82;;;8.45;;
40503;SDS011;42292;49.048;8.374;2022-09-21T05:34:02;10.68;;;8.40;;
40503;SDS011;42292;49.048;8.374;2022-09-21T05:36:54;11.40;;;8.75;;
40503;SDS011;42292;49.048;8.374;2022-09-21T05:39:27;15.43;;;9.30;;
40503;SDS011;42292;49.048;8.374;2022-09-21T05:41:53;11.20;;;9.13;;
40503;SDS011;42292;49.048;8.374;2022-09-21T05:44:21;14.05;;;9.20;;
40503;SDS011;42292;49.048;8.374;2022-09-21T05:55:06;12.18;;;8.30;;
40503;SDS011;42292;49.048;8.374;2022-09-21T05:57:50;14.63;;;8.30;;
40503;SDS011;42292;49.048;8.374;2022-09-21T06:00:25;14.50;;;8.68;;
40503;SDS011;42292;49.048;8.374;2022-09-21T06:03:08;12.93;;;8.50;;
40503;SDS011;42292;49.048;8.374;2022-09-21T06:05:53;11.57;;;8.30;;
40503;SDS011;42292;49.048;8.374;2022-09-21T06:08:20;12.45;;;8.07;;
40503;SDS011;42292;49.048;8.374;2022-09-21T06:10:46;11.10;;;7.40;;
40503;SDS011;42292;49.048;8.374;2022-09-21T06:13:12;10.00;;;7.07;;
40503;SDS011;42292;49.048;8.374;2022-09-21T06:15:38;12.40;;;7.57;;
40503;SDS011;42292;49.048;8.374;2022-09-21T06:18:04;12.32;;;7.00;;
40503;SDS011;42292;49.048;8.374;2022-09-21T06:20:30;11.05;;;7.97;;
40503;SDS011;42292;49.048;8.374;2022-09-21T06:23:03;11.10;;;7.68;;
40503;SDS011;42292;49.048;8.374;2022-09-21T06:25:30;11.07;;;7.97;;
40503;SDS011;42292;49.048;8.374;2022-09-21T06:28:00;11.73;;;7.90;;
40503;SDS011;42292;49.048;8.374;2022-09-21T06:30:30;12.43;;;7.88;;
40503;SDS011;42292;49.048;8.374;2022-09-21T06:32:58;10.95;;;7.85;;
40503;SDS011;42292;49.048;8.374;2022-09-21T06:35:28;10.88;;;8.38;;
40503;SDS011;42292;49.048;8.374;2022-09-21T06:37:58;12.80;;;8.35;;
40503;SDS011;42292;49.048;8.374;2022-09-21T06:40:27;8.57;;;7.63;;
40503;SDS011;42292;49.048;8.374;2022-09-21T06:43:01;12.65;;;7.57;;
40503;SDS011;42292;49.048;8.374;2022-09-21T06:45:30;10.88;;;8.10;;
40503;SDS011;42292;49.048;8.374;2022-09-21T06:48:01;11.67;;;7.43;;
40503;SDS011;42292;49.048;8.374;2022-09-21T06:50:27;11.60;;;7.47;;
40503;SDS011;42292;49.048;8.374;2022-09-21T06:52:57;11.05;;;8.02;;
40503;SDS011;42292;49.048;8.374;2022-09-21T06:55:24;11.45;;;7.85;;
40503;SDS011;42292;49.048;8.374;2022-09-21T06:57:49;11.02;;;7.43;;
40503;SDS011;42292;49.048;8.374;2022-09-21T07:00:15;9.88;;;7.35;;
40503;SDS011;42292;49.048;8.374;2022-09-21T07:02:44;13.20;;;8.43;;
40503;SDS011;42292;49.048;8.374;2022-09-21T07:05:10;11.82;;;7.70;;
40503;SDS011;42292;49.048;8.374;2022-09-21T07:07:36;11.18;;;8.15;;
40503;SDS011;42292;49.048;8.374;2022-09-21T07:10:02;13.38;;;8.10;;
40503;SDS011;42292;49.048;8.374;2022-09-21T07:12:32;14.32;;;8.45;;
40503;SDS011;42292;49.048;8.374;2022-09-21T07:14:58;12.25;;;8.52;;
40503;SDS011;42292;49.048;8.374;2022-09-21T07:17:33;11.77;;;7.10;;
40503;SDS011;42292;49.048;8.374;2022-09-21T07:20:04;10.68;;;7.80;;
40503;SDS011;42292;49.048;8.374;2022-09-21T07:22:31;11.73;;;7.93;;
40503;SDS011;42292;49.048;8.374;2022-09-21T07:25:00;10.88;;;7.63;;
40503;SDS011;42292;49.048;8.374;2022-09-21T07:27:26;9.87;;;7.37;;
40503;SDS011;42292;49.048;8.374;2022-09-21T07:29:54;13.10;;;7.95;;
40503;SDS011;42292;49.048;8.374;2022-09-21T07:32:19;10.68;;;7.57;;
40503;SDS011;42292;49.048;8.374;2022-09-21T07:34:45;11.65;;;8.25;;
40503;SDS011;42292;49.048;8.374;2022-09-21T07:37:11;13.30;;;7.87;;
40503;SDS011;42292;49.048;8.374;2022-09-21T07:39:37;11.23;;;7.78;;
40503;SDS011;42292;49.048;8.374;2022-09-21T07:42:03;10.52;;;8.13;;
40503;SDS011;42292;49.048;8.374;2022-09-21T07:44:30;13.43;;;8.05;;
40503;SDS011;42292;49.048;8.374;2022-09-21T07:46:58;15.00;;;8.82;;
40503;SDS011;42292;49.048;8.374;2022-09-21T07:49:24;10.13;;;8.48;;
40503;SDS011;42292;49.048;8.374;2022-09-21T07:51:52;11.07;;;8.50;;
40503;SDS011;42292;49.048;8.374;2022-09-21T07:54:18;11.80;;;8.20;;
40503;SDS011;42292;49.048;8.374;2022-09-21T07:56:46;12.70;;;8.40;;
40503;SDS011;42292;49.048;8.374;2022-09-21T07:59:31;12.65;;;8.45;;
40503;SDS011;42292;49.048;8.374;2022-09-21T08:01:57;11.53;;;8.47;;
40503;SDS011;42292;49.048;8.374;2022-09-21T08:04:24;11.35;;;8.60;;
40503;SDS011;42292;49.048;8.374;2022-09-21T08:06:49;11.75;;;8.27;;
40503;SDS011;42292;49.048;8.374;2022-09-21T08:09:15;10.23;;;7.93;;
40503;SDS011;42292;49.048;8.374;2022-09-21T08:11:40;10.20;;;7.47;;
40503;SDS011;42292;49.048;8.374;2022-09-21T08:14:11;12.80;;;7.47;;
40503;SDS011;42292;49.048;8.374;2022-09-21T08:16:43;14.45;;;7.75;;
40503;SDS011;42292;49.048;8.374;2022-09-21T08:19:11;10.18;;;7.43;;
40503;SDS011;42292;49.048;8.374;2022-09-21T08:21:37;11.68;;;7.10;;
40503;SDS011;42292;49.048;8.374;2022-09-21T08:24:02;12.23;;;7.63;;
40503;SDS011;42292;49.048;8.374;2022-09-21T08:26:31;11.05;;;7.43;;
40503;SDS011;42292;49.048;8.374;2022-09-21T08:28:59;13.55;;;7.63;;
40503;SDS011;42292;49.048;8.374;2022-09-21T08:31:28;12.00;;;6.95;;
40503;SDS011;42292;49.048;8.374;2022-09-21T08:33:54;12.82;;;7.45;;
40503;SDS011;42292;49.048;8.374;2022-09-21T08:36:21;9.80;;;7.18;;
40503;SDS011;42292;49.048;8.374;2022-09-21T08:38:49;11.85;;;6.75;;
40503;SDS011;42292;49.048;8.374;2022-09-21T08:41:19;13.35;;;9.23;;
40503;SDS011;42292;49.048;8.374;2022-09-21T08:44:01;18.67;;;12.70;;
40503;SDS011;42292;49.048;8.374;2022-09-21T08:46:30;14.57;;;8.93;;
40503;SDS011;42292;49.048;8.374;2022-09-21T08:51:58;10.65;;;6.95;;
40503;SDS011;42292;49.048;8.374;2022-09-21T08:54:28;7.90;;;6.03;;
40503;SDS011;42292;49.048;8.374;2022-09-21T08:57:03;10.10;;;6.50;;
40503;SDS011;42292;49.048;8.374;2022-09-21T08:59:28;11.00;;;6.63;;
40503;SDS011;42292;49.048;8.374;2022-09-21T09:02:00;9.20;;;5.93;;
40503;SDS011;42292;49.048;8.374;2022-09-21T09:04:44;7.35;;;5.80;;
40503;SDS011;42292;49.048;8.374;2022-09-21T09:07:41;8.50;;;5.90;;
40503;SDS011;42292;49.048;8.374;2022-09-21T09:21:00;10.18;;;6.00;;
40503;SDS011;42292;49.048;8.374;2022-09-21T09:23:43;10.40;;;5.30;;
40503;SDS011;42292;49.048;8.374;2022-09-21T09:26:29;8.77;;;5.70;;
40503;SDS011;42292;49.048;8.374;2022-09-21T09:31:55;8.38;;;5.28;;
40503;SDS011;42292;49.048;8.374;2022-09-21T09:34:27;10.15;;;5.80;;
40503;SDS011;42292;49.048;8.374;2022-09-21T09:37:22;8.32;;;5.05;;
40503;SDS011;42292;49.048;8.374;2022-09-21T09:39:50;7.23;;;4.13;;
40503;SDS011;42292;49.048;8.374;2022-09-21T09:42:41;8.95;;;4.40;;
40503;SDS011;42292;49.048;8.374;2022-09-21T09:50:33;6.30;;;3.25;;
40503;SDS011;42292;49.048;8.374;2022-09-21T09:53:04;6.20;;;3.47;;
40503;SDS011;42292;49.048;8.374;2022-09-21T09:55:34;7.72;;;3.33;;
40503;SDS011;42292;49.048;8.374;2022-09-21T09:58:05;4.28;;;3.15;;
40503;SDS011;42292;49.048;8.374;2022-09-21T10:01:00;5.13;;;2.70;;
40503;SDS011;42292;49.048;8.374;2022-09-21T10:03:26;6.85;;;3.08;;
40503;SDS011;42292;49.048;8.374;2022-09-21T10:05:52;6.10;;;2.55;;
40503;SDS011;42292;49.048;8.374;2022-09-21T10:08:25;4.60;;;2.08;;
40503;SDS011;42292;49.048;8.374;2022-09-21T10:10:54;4.20;;;2.35;;
40503;SDS011;42292;49.048;8.374;2022-09-21T10:15:57;4.07;;;2.10;;
40503;SDS011;42292;49.048;8.374;2022-09-21T10:23:57;3.53;;;1.90;;
40503;SDS011;42292;49.048;8.374;2022-09-21T10:27:10;2.65;;;1.45;;
40503;SDS011;42292;49.048;8.374;2022-09-21T10:30:04;3.67;;;1.63;;
40503;SDS011;42292;49.048;8.374;2022-09-21T10:32:16;4.38;;;1.50;;
40503;SDS011;42292;49.048;8.374;2022-09-21T10:39:57;3.45;;;1.55;;
40503;SDS011;42292;49.048;8.374;2022-09-21T10:42:23;2.70;;;1.20;;
40503;SDS011;42292;49.048;8.374;2022-09-21T10:44:51;2.97;;;1.33;;
40503;SDS011;42292;49.048;8.374;2022-09-21T10:47:35;3.20;;;1.20;;
40503;SDS011;42292;49.048;8.374;2022-09-21T10:50:07;5.03;;;1.40;;
40503;SDS011;42292;49.048;8.374;2022-09-21T10:52:49;3.42;;;1.33;;
40503;SDS011;42292;49.048;8.374;2022-09-21T10:55:21;2.20;;;0.90;;
40503;SDS011;42292;49.048;8.374;2022-09-21T10:57:48;2.53;;;1.07;;
40503;SDS011;42292;49.048;8.374;2022-09-21T11:02:59;2.50;;;1.40;;
40503;SDS011;42292;49.048;8.374;2022-09-21T11:05:33;1.95;;;1.00;;
40503;SDS011;42292;49.048;8.374;2022-09-21T11:13:10;3.90;;;0.98;;
40503;SDS011;42292;49.048;8.374;2022-09-21T11:19:09;3.30;;;1.13;;
40503;SDS011;42292;49.048;8.374;2022-09-21T11:21:56;4.25;;;1.13;;
40503;SDS011;42292;49.048;8.374;2022-09-21T11:24:42;2.92;;;0.95;;
40503;SDS011;42292;49.048;8.374;2022-09-21T11:27:23;2.47;;;1.02;;
40503;SDS011;42292;49.048;8.374;2022-09-21T11:35:02;1.70;;;0.90;;
40503;SDS011;42292;49.048;8.374;2022-09-21T11:43:24;2.03;;;1.17;;
40503;SDS011;42292;49.048;8.374;2022-09-21T11:58:22;3.03;;;0.95;;
40503;SDS011;42292;49.048;8.374;2022-09-21T12:00:35;1.60;;;0.80;;
40503;SDS011;42292;49.048;8.374;2022-09-21T12:14:49;2.00;;;0.60;;
40503;SDS011;42292;49.048;8.374;2022-09-21T12:17:35;3.30;;;1.35;;
40503;SDS011;42292;49.048;8.374;2022-09-21T12:23:04;2.20;;;1.02;;
40503;SDS011;42292;49.048;8.374;2022-09-21T12:25:41;3.50;;;0.97;;
40503;SDS011;42292;49.048;8.374;2022-09-21T12:28:30;2.00;;;0.90;;
40503;SDS011;42292;49.048;8.374;2022-09-21T12:31:14;1.90;;;0.60;;
40503;SDS011;42292;49.048;8.374;2022-09-21T12:33:52;2.37;;;0.90;;
40503;SDS011;42292;49.048;8.374;2022-09-21T12:36:26;3.40;;;0.90;;
40503;SDS011;42292;49.048;8.374;2022-09-21T12:41:36;2.00;;;0.95;;
40503;SDS011;42292;49.048;8.374;2022-09-21T12:50:25;1.88;;;0.75;;
40503;SDS011;42292;49.048;8.374;2022-09-21T12:52:59;2.08;;;0.80;;
40503;SDS011;42292;49.048;8.374;2022-09-21T12:55:44;1.83;;;0.80;;
40503;SDS011;42292;49.048;8.374;2022-09-21T12:58:19;2.40;;;0.70;;
40503;SDS011;42292;49.048;8.374;2022-09-21T13:01:09;2.40;;;0.60;;
40503;SDS011;42292;49.048;8.374;2022-09-21T13:04:11;2.47;;;0.70;;
40503;SDS011;42292;49.048;8.374;2022-09-21T13:09:27;1.95;;;1.00;;
40503;SDS011;42292;49.048;8.374;2022-09-21T13:11:59;2.47;;;0.90;;
40503;SDS011;42292;49.048;8.374;2022-09-21T13:14:32;2.15;;;0.90;;
40503;SDS011;42292;49.048;8.374;2022-09-21T13:17:03;1.63;;;0.57;;
40503;SDS011;42292;49.048;8.374;2022-09-21T13:19:41;1.10;;;0.50;;
40503;SDS011;42292;49.048;8.374;2022-09-21T13:22:12;1.30;;;0.50;;
40503;SDS011;42292;49.048;8.374;2022-09-21T13:24:58;1.02;;;0.40;;
40503;SDS011;42292;49.048;8.374;2022-09-21T13:28:18;2.50;;;0.68;;
40503;SDS011;42292;49.048;8.374;2022-09-21T13:30:33;1.38;;;0.52;;
40503;SDS011;42292;49.048;8.374;2022-09-21T13:33:03;1.83;;;0.70;;
40503;SDS011;42292;49.048;8.374;2022-09-21T13:38:26;1.83;;;0.68;;
40503;SDS011;42292;49.048;8.374;2022-09-21T13:40:56;1.52;;;0.75;;
40503;SDS011;42292;49.048;8.374;2022-09-21T13:51:55;0.90;;;0.57;;
40503;SDS011;42292;49.048;8.374;2022-09-21T13:54:38;1.45;;;0.50;;
40503;SDS011;42292;49.048;8.374;2022-09-21T13:57:20;2.23;;;0.87;;
40503;SDS011;42292;49.048;8.374;2022-09-21T14:00:57;2.03;;;0.70;;
40503;SDS011;42292;49.048;8.374;2022-09-21T14:03:05;2.80;;;0.80;;
40503;SDS011;42292;49.048;8.374;2022-09-21T14:05:48;1.92;;;0.80;;
40503;SDS011;42292;49.048;8.374;2022-09-21T14:16:25;1.98;;;0.70;;
40503;SDS011;42292;49.048;8.374;2022-09-21T14:19:01;1.48;;;0.60;;
40503;SDS011;42292;49.048;8.374;2022-09-21T14:24:44;2.53;;;0.60;;
40503;SDS011;42292;49.048;8.374;2022-09-21T14:30:03;1.35;;;0.50;;
40503;SDS011;42292;49.048;8.374;2022-09-21T14:33:11;2.50;;;0.50;;
40503;SDS011;42292;49.048;8.374;2022-09-21T14:35:40;1.45;;;0.65;;
40503;SDS011;42292;49.048;8.374;2022-09-21T14:40:44;1.00;;;0.50;;
40503;SDS011;42292;49.048;8.374;2022-09-21T14:43:14;1.30;;;0.70;;
40503;SDS011;42292;49.048;8.374;2022-09-21T15:02:27;1.73;;;0.50;;
40503;SDS011;42292;49.048;8.374;2022-09-21T15:18:48;1.40;;;0.50;;
40503;SDS011;42292;49.048;8.374;2022-09-21T15:21:28;0.77;;;0.40;;
40503;SDS011;42292;49.048;8.374;2022-09-21T15:23:56;1.05;;;0.40;;
40503;SDS011;42292;49.048;8.374;2022-09-21T15:26:29;1.33;;;0.50;;
40503;SDS011;42292;49.048;8.374;2022-09-21T15:28:59;1.58;;;0.40;;
40503;SDS011;42292;49.048;8.374;2022-09-21T15:31:34;0.55;;;0.40;;
40503;SDS011;42292;49.048;8.374;2022-09-21T15:34:07;1.40;;;0.40;;
40503;SDS011;42292;49.048;8.374;2022-09-21T15:36:38;1.00;;;0.55;;
40503;SDS011;42292;49.048;8.374;2022-09-21T15:39:06;1.40;;;0.40;;
40503;SDS011;42292;49.048;8.374;2022-09-21T15:41:53;2.00;;;0.60;;
40503;SDS011;42292;49.048;8.374;2022-09-21T15:44:36;1.47;;;0.80;;
40503;SDS011;42292;49.048;8.374;2022-09-21T15:47:03;0.90;;;0.52;;
40503;SDS011;42292;49.048;8.374;2022-09-21T15:49:39;0.93;;;0.40;;
40503;SDS011;42292;49.048;8.374;2022-09-21T15:52:39;1.20;;;0.50;;
40503;SDS011;42292;49.048;8.374;2022-09-21T15:55:12;1.73;;;0.50;;
40503;SDS011;42292;49.048;8.374;2022-09-21T15:57:43;1.10;;;0.50;;
40503;SDS011;42292;49.048;8.374;2022-09-21T16:02:41;3.45;;;0.60;;
40503;SDS011;42292;49.048;8.374;2022-09-21T16:05:28;0.80;;;0.40;;
40503;SDS011;42292;49.048;8.374;2022-09-21T16:08:57;1.05;;;0.47;;
40503;SDS011;42292;49.048;8.374;2022-09-21T16:10:52;1.30;;;0.50;;
40503;SDS011;42292;49.048;8.374;2022-09-21T16:13:36;0.97;;;0.50;;
40503;SDS011;42292;49.048;8.374;2022-09-21T16:16:20;1.08;;;0.60;;
40503;SDS011;42292;49.048;8.374;2022-09-21T16:18:49;1.17;;;0.63;;
40503;SDS011;42292;49.048;8.374;2022-09-21T16:21:20;1.87;;;0.77;;
40503;SDS011;42292;49.048;8.374;2022-09-21T16:24:16;1.20;;;0.60;;
40503;SDS011;42292;49.048;8.374;2022-09-21T16:26:57;1.10;;;0.80;;
40503;SDS011;42292;49.048;8.374;2022-09-21T16:29:36;3.10;;;0.70;;
40503;SDS011;42292;49.048;8.374;2022-09-21T16:34:42;1.23;;;0.63;;
40503;SDS011;42292;49.048;8.374;2022-09-21T16:39:55;2.05;;;0.70;;
40503;SDS011;42292;49.048;8.374;2022-09-21T16:42:26;4.50;;;1.00;;
40503;SDS011;42292;49.048;8.374;2022-09-21T16:44:59;1.00;;;0.70;;
40503;SDS011;42292;49.048;8.374;2022-09-21T16:47:28;2.03;;;0.82;;
40503;SDS011;42292;49.048;8.374;2022-09-21T16:50:00;3.47;;;1.67;;
40503;SDS011;42292;49.048;8.374;2022-09-21T16:52:27;3.22;;;1.20;;
40503;SDS011;42292;49.048;8.374;2022-09-21T16:54:54;3.00;;;1.40;;
40503;SDS011;42292;49.048;8.374;2022-09-21T16:57:21;4.10;;;1.60;;
40503;SDS011;42292;49.048;8.374;2022-09-21T16:59:47;2.38;;;1.10;;
40503;SDS011;42292;49.048;8.374;2022-09-21T17:02:16;1.50;;;0.95;;
40503;SDS011;42292;49.048;8.374;2022-09-21T17:04:42;3.30;;;1.33;;
40503;SDS011;42292;49.048;8.374;2022-09-21T17:07:13;2.60;;;1.35;;
40503;SDS011;42292;49.048;8.374;2022-09-21T17:09:41;2.47;;;1.23;;
40503;SDS011;42292;49.048;8.374;2022-09-21T17:12:11;2.53;;;1.00;;
40503;SDS011;42292;49.048;8.374;2022-09-21T17:14:41;3.42;;;1.23;;
40503;SDS011;42292;49.048;8.374;2022-09-21T17:17:18;2.42;;;1.10;;
40503;SDS011;42292;49.048;8.374;2022-09-21T17:19:46;2.57;;;1.00;;
40503;SDS011;42292;49.048;8.374;2022-09-21T17:22:15;4.28;;;1.20;;
40503;SDS011;42292;49.048;8.374;2022-09-21T17:24:45;2.72;;;1.20;;
40503;SDS011;42292;49.048;8.374;2022-09-21T17:27:14;3.40;;;1.05;;
40503;SDS011;42292;49.048;8.374;2022-09-21T17:29:43;2.40;;;1.13;;
40503;SDS011;42292;49.048;8.374;2022-09-21T17:32:14;3.10;;;1.13;;
40503;SDS011;42292;49.048;8.374;2022-09-21T17:34:47;2.53;;;1.35;;
40503;SDS011;42292;49.048;8.374;2022-09-21T17:37:38;2.80;;;1.75;;
40503;SDS011;42292;49.048;8.374;2022-09-21T17:40:06;2.90;;;1.70;;
40503;SDS011;42292;49.048;8.374;2022-09-21T17:42:33;3.80;;;1.58;;
40503;SDS011;42292;49.048;8.374;2022-09-21T17:45:08;3.42;;;1.58;;
40503;SDS011;42292;49.048;8.374;2022-09-21T17:47:56;3.10;;;1.33;;
40503;SDS011;42292;49.048;8.374;2022-09-21T17:50:25;2.70;;;1.40;;
40503;SDS011;42292;49.048;8.374;2022-09-21T17:52:52;2.53;;;1.25;;
40503;SDS011;42292;49.048;8.374;2022-09-21T17:55:38;3.03;;;1.50;;
40503;SDS011;42292;49.048;8.374;2022-09-21T17:58:16;3.88;;;1.42;;
40503;SDS011;42292;49.048;8.374;2022-09-21T18:05:44;2.58;;;1.15;;
40503;SDS011;42292;49.048;8.374;2022-09-21T18:08:12;3.03;;;1.60;;
40503;SDS011;42292;49.048;8.374;2022-09-21T18:10:38;2.70;;;1.70;;
40503;SDS011;42292;49.048;8.374;2022-09-21T18:13:12;3.77;;;1.83;;
40503;SDS011;42292;49.048;8.374;2022-09-21T18:19:00;20.75;;;18.42;;
40503;SDS011;42292;49.048;8.374;2022-09-21T18:21:28;6.30;;;4.70;;
40503;SDS011;42292;49.048;8.374;2022-09-21T18:24:05;4.18;;;2.00;;
40503;SDS011;42292;49.048;8.374;2022-09-21T18:27:04;2.50;;;1.50;;
40503;SDS011;42292;49.048;8.374;2022-09-21T18:29:31;2.50;;;1.50;;
40503;SDS011;42292;49.048;8.374;2022-09-21T18:32:04;1.60;;;1.40;;
40503;SDS011;42292;49.048;8.374;2022-09-21T18:43:28;4.78;;;2.15;;
40503;SDS011;42292;49.048;8.374;2022-09-21T18:46:02;4.32;;;2.60;;
40503;SDS011;42292;49.048;8.374;2022-09-21T18:54:22;3.38;;;2.17;;
40503;SDS011;42292;49.048;8.374;2022-09-21T18:56:52;3.80;;;2.53;;
40503;SDS011;42292;49.048;8.374;2022-09-21T18:59:19;5.13;;;2.40;;
40503;SDS011;42292;49.048;8.374;2022-09-21T19:01:50;5.00;;;2.65;;
40503;SDS011;42292;49.048;8.374;2022-09-21T19:04:16;5.30;;;2.45;;